Time;durP1;ratioP1;P1;durP2;ratioP2;P2;SDS_P1;SDS_P2;PMS_P1;PMS_P2;Temp;Humidity;BMP_temperature;BMP_pressure;BME280_temperature;BME280_humidity;BME280_pressure;Samples;Min_cycle;Max_cycle;Signal;HPM_P1;HPM_P2
2023/02/10 00:01:36;;;;;;;54.57;30.40;;;5.50;96.40;;;;;;5053519;28;20505;-57
2023/02/10 00:04:05;;;;;;;44.77;29.53;;;5.50;96.70;;;;;;5053112;28;20470;-58
2023/02/10 00:06:32;;;;;;;50.00;31.63;;;5.50;96.80;;;;;;5053485;28;20442;-57
2023/02/10 00:09:01;;;;;;;47.73;30.27;;;5.40;97.00;;;;;;5053492;28;20480;-57
2023/02/10 00:14:13;;;;;;;44.53;29.43;;;5.40;97.20;;;;;;5053217;28;20525;-57
2023/02/10 00:16:40;;;;;;;49.37;30.23;;;5.40;97.30;;;;;;5053179;28;20453;-57
2023/02/10 00:19:08;;;;;;;46.90;30.60;;;5.50;97.20;;;;;;5053577;28;20449;-57
2023/02/10 00:21:35;;;;;;;47.57;30.27;;;5.50;97.20;;;;;;5052920;28;20838;-57
2023/02/10 00:24:03;;;;;;;46.13;31.60;;;5.50;97.30;;;;;;5052827;28;20809;-57
2023/02/10 00:26:29;;;;;;;43.50;31.40;;;5.50;97.30;;;;;;5052962;28;20453;-57
2023/02/10 00:28:56;;;;;;;45.60;30.23;;;5.40;97.50;;;;;;5053525;28;20446;-57
2023/02/10 00:31:23;;;;;;;43.97;31.37;;;5.40;97.50;;;;;;5053368;28;20446;-58
2023/02/10 00:33:50;;;;;;;47.30;31.10;;;5.50;97.50;;;;;;5053329;28;20446;-58
2023/02/10 00:36:18;;;;;;;42.57;28.77;;;5.50;97.40;;;;;;5052860;28;20976;-57
2023/02/10 00:38:45;;;;;;;47.20;29.73;;;5.50;97.20;;;;;;5053208;28;20458;-57
2023/02/10 00:41:15;;;;;;;44.60;30.23;;;5.50;97.00;;;;;;5053076;28;20473;-58
2023/02/10 00:43:44;;;;;;;43.03;29.57;;;5.60;96.80;;;;;;5053173;28;20457;-58
2023/02/10 00:46:11;;;;;;;45.53;28.80;;;5.60;96.60;;;;;;5053032;28;20453;-57
2023/02/10 00:48:38;;;;;;;47.67;31.07;;;5.60;96.50;;;;;;5052803;28;20472;-57
2023/02/10 00:51:05;;;;;;;49.70;31.77;;;5.60;96.50;;;;;;5052675;28;20960;-57
2023/02/10 00:53:34;;;;;;;46.77;30.33;;;5.60;96.60;;;;;;5053201;28;20450;-57
2023/02/10 00:56:00;;;;;;;45.67;29.70;;;5.60;97.00;;;;;;5055929;28;20948;-57
2023/02/10 00:58:27;;;;;;;57.80;34.57;;;5.50;97.20;;;;;;5056704;28;20985;-57
2023/02/10 01:00:54;;;;;;;49.07;30.80;;;5.40;98.00;;;;;;5056780;28;20491;-57
2023/02/10 01:03:21;;;;;;;51.57;30.57;;;5.40;98.60;;;;;;5056907;28;20445;-57
2023/02/10 01:05:48;;;;;;;48.67;30.80;;;5.40;98.90;;;;;;5056735;28;20461;-57
2023/02/10 01:08:16;;;;;;;56.53;31.17;;;5.40;99.00;;;;;;5056721;28;20453;-57
2023/02/10 01:10:44;;;;;;;55.80;29.60;;;5.30;99.20;;;;;;5056713;28;20818;-57
2023/02/10 01:13:13;;;;;;;56.07;33.70;;;5.30;99.50;;;;;;5056659;28;20425;-58
2023/02/10 01:15:43;;;;;;;53.43;32.80;;;5.20;99.90;;;;;;5056498;28;20481;-57
2023/02/10 01:18:10;;;;;;;55.83;33.53;;;5.10;99.90;;;;;;5056550;28;20450;-57
2023/02/10 01:20:39;;;;;;;54.00;33.47;;;5.10;99.90;;;;;;5056125;28;21000;-57
2023/02/10 01:23:06;;;;;;;58.27;35.67;;;5.10;99.90;;;;;;5056512;28;20468;-57
2023/02/10 01:25:33;;;;;;;50.43;32.60;;;5.10;99.90;;;;;;5056374;28;20480;-57
2023/02/10 01:28:01;;;;;;;55.93;34.20;;;5.10;99.90;;;;;;5056408;28;20449;-57
2023/02/10 01:30:28;;;;;;;53.67;32.40;;;5.00;99.90;;;;;;5056044;28;20938;-57
2023/02/10 01:32:56;;;;;;;51.50;32.27;;;5.10;99.90;;;;;;5056044;28;20449;-57
2023/02/10 01:35:22;;;;;;;47.90;31.00;;;5.10;99.90;;;;;;5056268;28;20568;-57
2023/02/10 01:37:49;;;;;;;56.07;33.17;;;5.10;99.90;;;;;;5056379;28;20464;-57
2023/02/10 01:40:16;;;;;;;56.07;31.80;;;5.10;99.90;;;;;;5056070;28;20492;-57
2023/02/10 01:42:45;;;;;;;52.67;32.20;;;5.10;99.90;;;;;;5056153;28;20430;-57
2023/02/10 01:45:17;;;;;;;50.80;31.87;;;5.00;99.90;;;;;;5056031;28;20470;-57
2023/02/10 01:47:46;;;;;;;50.97;31.00;;;5.00;99.90;;;;;;5056197;28;20465;-57
2023/02/10 01:50:13;;;;;;;55.40;31.40;;;5.00;99.90;;;;;;5056033;28;20461;-57
2023/02/10 01:52:41;;;;;;;53.73;31.30;;;5.00;99.90;;;;;;5056358;28;20458;-57
2023/02/10 01:55:11;;;;;;;47.97;31.70;;;5.00;99.90;;;;;;5055794;28;20468;-58
2023/02/10 01:57:40;;;;;;;61.17;33.00;;;5.10;99.90;;;;;;5056002;28;20445;-58
2023/02/10 02:00:09;;;;;;;57.97;33.10;;;5.10;99.90;;;;;;5055701;28;20803;-57
2023/02/10 02:02:37;;;;;;;54.10;31.80;;;5.10;99.90;;;;;;5055414;28;21012;-57
2023/02/10 02:05:07;;;;;;;54.57;31.87;;;5.10;99.90;;;;;;5055625;28;20469;-58
2023/02/10 02:07:36;;;;;;;54.70;33.90;;;5.10;99.90;;;;;;5054830;28;20445;-58
2023/02/10 02:10:06;;;;;;;52.77;32.63;;;5.20;99.90;;;;;;5055630;28;20446;-57
2023/02/10 02:12:41;;;;;;;51.07;31.70;;;5.20;99.90;;;;;;5055615;28;20438;-57
2023/02/10 02:15:15;;;;;;;53.53;32.27;;;5.20;99.90;;;;;;5055287;28;20484;-58
2023/02/10 02:17:51;;;;;;;48.57;32.23;;;5.20;99.90;;;;;;5055545;28;20433;-57
2023/02/10 02:20:44;;;;;;;52.50;32.20;;;5.20;99.90;;;;;;5055416;28;20430;-57
2023/02/10 02:23:20;;;;;;;53.83;34.10;;;5.20;99.90;;;;;;5047386;28;20458;-57
2023/02/10 02:26:14;;;;;;;49.80;31.37;;;5.20;99.90;;;;;;5055300;28;20469;-57
2023/02/10 02:28:51;;;;;;;49.70;31.00;;;5.30;99.90;;;;;;5055526;28;20449;-57
2023/02/10 02:31:47;;;;;;;47.73;30.33;;;5.30;99.90;;;;;;5055306;28;20441;-57
2023/02/10 02:34:18;;;;;;;48.50;31.87;;;5.30;99.90;;;;;;5055187;28;20488;-57
2023/02/10 02:36:50;;;;;;;51.27;33.97;;;5.40;99.90;;;;;;5055158;28;20441;-57
2023/02/10 02:39:16;;;;;;;52.27;33.03;;;5.40;99.90;;;;;;5055077;28;20425;-57
2023/02/10 02:41:43;;;;;;;52.20;32.53;;;5.40;99.90;;;;;;5054910;28;20489;-57
2023/02/10 02:44:10;;;;;;;48.90;32.23;;;5.50;99.90;;;;;;5054848;28;20477;-57
2023/02/10 02:46:47;;;;;;;53.40;33.87;;;5.50;99.80;;;;;;5055059;28;20460;-57
2023/02/10 02:49:28;;;;;;;54.70;31.67;;;5.50;99.70;;;;;;5054907;28;20434;-57
2023/02/10 02:52:03;;;;;;;51.80;33.77;;;5.50;99.70;;;;;;5054840;28;20421;-57
2023/02/10 02:54:39;;;;;;;56.00;33.70;;;5.50;99.80;;;;;;5054720;28;20468;-57
2023/02/10 02:57:12;;;;;;;53.33;32.90;;;5.40;99.90;;;;;;5054444;28;20929;-56
2023/02/10 02:59:44;;;;;;;54.83;33.67;;;5.40;99.90;;;;;;5054729;28;20442;-57
2023/02/10 03:02:14;;;;;;;52.03;31.60;;;5.30;99.90;;;;;;5054504;28;20477;-57
2023/02/10 03:04:43;;;;;;;45.73;30.73;;;5.40;99.90;;;;;;5054189;28;20901;-56
2023/02/10 03:07:10;;;;;;;67.33;33.43;;;5.30;99.90;;;;;;5054512;28;20796;-56
2023/02/10 03:09:37;;;;;;;48.23;29.97;;;5.30;99.90;;;;;;5054512;28;20456;-56
2023/02/10 03:12:04;;;;;;;50.70;30.43;;;5.30;99.90;;;;;;5054428;28;20507;-56
2023/02/10 03:14:31;;;;;;;47.37;31.43;;;5.20;99.90;;;;;;5054328;28;20474;-57
2023/02/10 03:16:58;;;;;;;56.20;32.20;;;5.30;99.90;;;;;;5054303;28;20456;-57
2023/02/10 03:19:25;;;;;;;49.77;30.50;;;5.30;99.90;;;;;;5053087;28;20847;-57
2023/02/10 03:21:53;;;;;;;66.83;32.67;;;5.30;99.80;;;;;;5054150;28;20558;-57
2023/02/10 03:24:20;;;;;;;48.10;30.70;;;5.30;99.60;;;;;;5054123;28;20481;-57
2023/02/10 03:26:46;;;;;;;54.80;31.93;;;5.40;99.50;;;;;;5054146;28;20445;-57
2023/02/10 03:29:15;;;;;;;67.13;34.17;;;5.30;99.40;;;;;;5054126;28;20515;-56
2023/02/10 03:31:41;;;;;;;51.83;30.53;;;5.30;99.30;;;;;;5053730;28;20445;-57
2023/02/10 03:34:08;;;;;;;55.27;34.10;;;5.30;99.10;;;;;;5054097;28;20469;-57
2023/02/10 03:36:35;;;;;;;44.97;28.70;;;5.30;99.10;;;;;;5053775;28;20454;-57
2023/02/10 03:39:04;;;;;;;62.17;32.93;;;5.20;99.00;;;;;;5054015;28;20430;-57
2023/02/10 03:41:31;;;;;;;44.57;28.50;;;5.20;99.00;;;;;;5053543;28;20989;-57
2023/02/10 03:43:58;;;;;;;51.13;32.40;;;5.20;99.00;;;;;;5053706;28;20461;-57
2023/02/10 03:46:24;;;;;;;57.00;32.97;;;5.20;99.10;;;;;;5054173;28;20495;-58
2023/02/10 03:48:51;;;;;;;48.93;29.60;;;5.10;99.20;;;;;;5053434;28;20461;-57
2023/02/10 03:51:18;;;;;;;55.37;31.50;;;5.10;99.30;;;;;;5053794;28;20446;-57
2023/02/10 03:53:45;;;;;;;47.83;30.97;;;5.10;99.30;;;;;;5053637;28;20445;-57
2023/02/10 03:56:13;;;;;;;50.10;31.33;;;5.10;99.30;;;;;;5053579;28;20430;-57
2023/02/10 03:58:39;;;;;;;48.57;30.30;;;5.10;99.20;;;;;;5053693;28;20453;-57
2023/02/10 04:01:10;;;;;;;51.13;29.20;;;5.10;99.10;;;;;;5053538;28;20504;-57
2023/02/10 04:03:37;;;;;;;49.27;30.50;;;5.10;99.00;;;;;;5053520;28;20456;-57
2023/02/10 04:06:04;;;;;;;44.40;29.20;;;5.10;98.80;;;;;;5053427;28;20450;-57
2023/02/10 04:08:31;;;;;;;53.93;30.80;;;5.10;98.60;;;;;;5053483;28;20858;-56
2023/02/10 04:10:58;;;;;;;43.70;29.50;;;5.00;98.30;;;;;;5053465;28;20457;-56
2023/02/10 04:13:26;;;;;;;46.40;28.23;;;5.00;98.00;;;;;;5053338;28;20446;-56
2023/02/10 04:16:01;;;;;;;45.30;28.60;;;5.00;97.80;;;;;;5052969;28;21012;-57
2023/02/10 04:18:28;;;;;;;49.07;29.13;;;5.00;97.60;;;;;;5053416;28;20472;-57
2023/02/10 04:20:55;;;;;;;50.30;30.03;;;4.90;97.40;;;;;;5053161;28;20449;-57
2023/02/10 04:23:21;;;;;;;51.50;30.70;;;4.90;97.20;;;;;;5053291;28;20549;-56
2023/02/10 04:25:48;;;;;;;45.53;26.50;;;4.90;97.00;;;;;;5053395;28;20481;-56
2023/02/10 04:28:15;;;;;;;48.67;29.57;;;4.90;96.80;;;;;;5052941;28;20453;-56
2023/02/10 04:30:43;;;;;;;48.60;27.07;;;4.80;96.80;;;;;;5052712;28;20448;-56
2023/02/10 04:33:09;;;;;;;42.83;27.53;;;4.80;96.80;;;;;;5053161;28;20446;-56
2023/02/10 04:35:36;;;;;;;50.83;28.23;;;4.80;96.80;;;;;;5053091;28;20474;-56
2023/02/10 04:38:04;;;;;;;42.73;27.03;;;4.70;96.80;;;;;;5053144;28;20445;-56
2023/02/10 04:40:31;;;;;;;49.03;27.90;;;4.70;96.80;;;;;;5053136;28;20446;-56
2023/02/10 04:42:57;;;;;;;51.37;27.90;;;4.70;96.80;;;;;;5053059;28;20493;-56
2023/02/10 04:45:24;;;;;;;42.20;31.00;;;4.60;96.70;;;;;;5052925;28;20478;-57
2023/02/10 04:47:52;;;;;;;42.70;27.47;;;4.60;96.80;;;;;;5052820;28;20472;-56
2023/02/10 04:50:19;;;;;;;45.07;27.77;;;4.60;96.90;;;;;;5053055;28;20460;-56
2023/02/10 04:52:46;;;;;;;47.00;28.83;;;4.60;96.90;;;;;;5052708;28;20929;-56
2023/02/10 04:55:12;;;;;;;41.40;26.80;;;4.60;96.80;;;;;;5052961;28;20488;-56
2023/02/10 04:57:39;;;;;;;45.77;27.00;;;4.50;96.70;;;;;;5052970;28;20456;-56
2023/02/10 05:00:07;;;;;;;47.07;27.90;;;4.50;96.60;;;;;;5053234;28;20445;-57
2023/02/10 05:02:33;;;;;;;50.50;26.40;;;4.50;96.40;;;;;;5052850;28;20481;-57
2023/02/10 05:05:02;;;;;;;46.27;25.77;;;4.50;96.20;;;;;;5052928;28;20548;-57
2023/02/10 05:07:28;;;;;;;44.10;27.83;;;4.40;96.00;;;;;;5052773;28;20452;-57
2023/02/10 05:09:55;;;;;;;45.40;29.40;;;4.40;96.10;;;;;;5052938;28;20453;-58
2023/02/10 05:12:22;;;;;;;51.33;28.93;;;4.30;96.40;;;;;;5052532;28;20485;-58
2023/02/10 05:14:49;;;;;;;46.97;29.60;;;4.30;96.90;;;;;;5053110;28;20488;-57
2023/02/10 05:17:15;;;;;;;45.53;28.97;;;4.30;97.10;;;;;;5052878;28;20457;-57
2023/02/10 05:19:42;;;;;;;52.20;30.73;;;4.30;97.40;;;;;;5052734;28;20445;-56
2023/02/10 05:22:10;;;;;;;60.40;31.30;;;4.30;97.50;;;;;;5052676;28;20488;-57
2023/02/10 05:24:37;;;;;;;46.20;31.17;;;4.30;97.50;;;;;;5052748;28;20560;-56
2023/02/10 05:27:04;;;;;;;55.63;29.37;;;4.30;97.70;;;;;;5052831;28;20452;-57
2023/02/10 05:29:30;;;;;;;51.73;33.30;;;4.20;97.70;;;;;;5052655;28;20453;-57
2023/02/10 05:31:57;;;;;;;53.30;31.90;;;4.20;97.80;;;;;;5052335;28;20841;-57
2023/02/10 05:34:25;;;;;;;53.33;30.60;;;4.20;98.00;;;;;;5052628;28;20872;-57
2023/02/10 05:36:52;;;;;;;45.03;28.47;;;4.20;98.10;;;;;;5052365;28;20541;-57
2023/02/10 05:39:26;;;;;;;48.33;28.90;;;4.20;98.00;;;;;;5052241;28;20972;-57
2023/02/10 05:41:53;;;;;;;52.00;31.53;;;4.20;97.90;;;;;;5053821;28;20461;-57
2023/02/10 05:44:20;;;;;;;49.20;29.77;;;4.20;97.90;;;;;;5056270;28;20481;-57
2023/02/10 05:46:47;;;;;;;48.40;27.87;;;4.20;97.80;;;;;;5056075;28;20453;-57
2023/02/10 05:49:14;;;;;;;48.90;26.73;;;4.20;97.60;;;;;;5056084;28;20427;-57
2023/02/10 05:51:41;;;;;;;46.37;27.57;;;4.20;97.40;;;;;;5056254;28;20503;-57
2023/02/10 05:54:07;;;;;;;41.90;27.40;;;4.10;97.10;;;;;;5056232;28;20844;-57
2023/02/10 05:56:35;;;;;;;43.57;27.57;;;4.10;96.90;;;;;;5055447;28;20425;-57
2023/02/10 05:59:02;;;;;;;44.77;27.70;;;4.10;96.70;;;;;;5055861;28;20449;-57
2023/02/10 06:01:29;;;;;;;45.87;27.67;;;4.10;96.50;;;;;;5055814;28;20426;-57
2023/02/10 06:03:56;;;;;;;41.03;26.80;;;4.10;96.40;;;;;;5055562;28;20458;-56
2023/02/10 06:06:23;;;;;;;45.10;27.40;;;4.00;96.30;;;;;;5055697;28;20805;-57
2023/02/10 06:08:50;;;;;;;43.57;26.97;;;4.00;96.20;;;;;;5055700;28;20457;-57
2023/02/10 06:11:16;;;;;;;39.87;25.87;;;4.00;96.10;;;;;;5055910;28;20445;-57
2023/02/10 06:13:44;;;;;;;45.03;27.20;;;3.90;96.30;;;;;;5055652;28;20453;-57
2023/02/10 06:16:11;;;;;;;45.37;27.30;;;3.90;95.90;;;;;;5055576;28;20456;-57
2023/02/10 06:18:38;;;;;;;42.80;26.43;;;3.90;95.90;;;;;;5055616;28;20450;-57
2023/02/10 06:21:05;;;;;;;44.70;28.03;;;3.80;95.90;;;;;;5055428;28;20485;-57
2023/02/10 06:23:32;;;;;;;46.50;27.40;;;3.80;95.90;;;;;;5055243;28;20488;-57
2023/02/10 06:25:59;;;;;;;48.23;26.47;;;3.80;96.00;;;;;;5055328;28;20478;-57
2023/02/10 06:28:26;;;;;;;39.37;25.13;;;3.80;96.00;;;;;;5055318;28;20450;-57
2023/02/10 06:30:55;;;;;;;44.40;27.60;;;3.70;96.00;;;;;;5055299;28;20449;-57
2023/02/10 06:33:22;;;;;;;47.80;25.67;;;3.70;96.10;;;;;;5055176;28;20437;-57
2023/02/10 06:35:49;;;;;;;42.87;27.97;;;3.70;96.10;;;;;;5055076;28;20477;-57
2023/02/10 06:38:16;;;;;;;45.13;27.93;;;3.70;96.10;;;;;;5055187;28;20819;-57
2023/02/10 06:40:42;;;;;;;48.13;28.23;;;3.70;96.20;;;;;;5055142;28;20826;-56
2023/02/10 06:43:09;;;;;;;48.50;26.90;;;3.60;96.30;;;;;;5055199;28;20477;-59
2023/02/10 06:45:36;;;;;;;41.40;26.63;;;3.60;96.30;;;;;;5054906;28;20473;-56
2023/02/10 06:48:05;;;;;;;49.47;28.13;;;3.60;96.30;;;;;;5054736;28;20457;-57
2023/02/10 06:50:32;;;;;;;44.03;27.17;;;3.60;96.30;;;;;;5055771;28;20464;-57
2023/02/10 06:52:59;;;;;;;41.63;26.00;;;3.60;96.40;;;;;;5055225;28;20461;-57
2023/02/10 06:55:25;;;;;;;42.67;26.90;;;3.60;96.40;;;;;;5054859;28;20473;-56
2023/02/10 06:57:52;;;;;;;51.83;26.30;;;3.60;96.30;;;;;;5054894;28;20485;-56
2023/02/10 07:00:19;;;;;;;49.50;26.40;;;3.60;96.30;;;;;;5055531;28;20437;-57
2023/02/10 07:02:45;;;;;;;42.23;27.80;;;3.60;96.30;;;;;;5054644;28;20469;-57
2023/02/10 07:05:13;;;;;;;48.63;28.40;;;3.50;96.20;;;;;;5054687;28;20465;-58
2023/02/10 07:07:40;;;;;;;41.70;26.47;;;3.50;96.20;;;;;;5054505;28;20453;-57
2023/02/10 07:10:08;;;;;;;49.73;27.50;;;3.50;96.30;;;;;;5054513;28;20433;-57
2023/02/10 07:12:35;;;;;;;51.53;28.90;;;3.50;96.30;;;;;;5054462;28;20434;-57
2023/02/10 07:15:01;;;;;;;52.43;29.77;;;3.50;96.50;;;;;;5053767;28;20511;-57
2023/02/10 07:17:28;;;;;;;45.80;28.40;;;3.50;96.80;;;;;;5054260;28;20446;-57
2023/02/10 07:19:55;;;;;;;45.37;27.50;;;3.50;97.10;;;;;;5054381;28;20430;-58
2023/02/10 07:22:23;;;;;;;58.73;29.77;;;3.60;97.30;;;;;;5054251;28;20473;-56
2023/02/10 07:24:50;;;;;;;53.80;29.77;;;3.60;97.60;;;;;;5054246;28;20476;-57
2023/02/10 07:27:16;;;;;;;49.63;28.97;;;3.60;97.70;;;;;;5054311;28;20452;-57
2023/02/10 07:29:43;;;;;;;46.03;27.57;;;3.60;98.00;;;;;;5054521;28;20437;-57
2023/02/10 07:32:10;;;;;;;49.40;28.97;;;3.60;98.20;;;;;;5054185;28;20453;-57
2023/02/10 07:34:36;;;;;;;52.50;29.27;;;3.70;98.20;;;;;;5053937;28;20470;-57
2023/02/10 07:37:03;;;;;;;50.63;30.10;;;3.70;98.30;;;;;;5053555;28;20465;-58
2023/02/10 07:39:31;;;;;;;54.27;28.60;;;3.70;98.50;;;;;;5054083;28;20433;-57
2023/02/10 07:41:58;;;;;;;53.33;31.93;;;3.70;98.60;;;;;;5054129;28;20442;-56
2023/02/10 07:44:25;;;;;;;56.40;30.40;;;3.80;98.70;;;;;;5062281;28;20475;-56
2023/02/10 07:46:52;;;;;;;49.47;30.20;;;3.80;98.90;;;;;;5074240;28;20445;-56
2023/02/10 07:49:19;;;;;;;57.07;30.57;;;3.80;99.20;;;;;;5073968;28;20433;-56
2023/02/10 07:51:46;;;;;;;51.30;30.50;;;3.80;99.30;;;;;;5073974;28;20444;-56
2023/02/10 07:54:13;;;;;;;58.33;29.77;;;3.90;99.50;;;;;;5074138;28;20808;-56
2023/02/10 07:56:41;;;;;;;58.63;30.33;;;3.90;99.60;;;;;;5074066;28;20453;-56
2023/02/10 07:59:07;;;;;;;50.50;28.73;;;4.00;99.70;;;;;;5073983;28;20843;-56
2023/02/10 08:01:37;;;;;;;44.73;31.10;;;4.00;99.70;;;;;;5074025;28;20429;-56
2023/02/10 08:04:04;;;;;;;57.73;31.33;;;4.10;99.70;;;;;;5073080;28;20489;-56
2023/02/10 08:06:31;;;;;;;47.43;29.20;;;4.10;99.80;;;;;;5073950;28;20919;-57
2023/02/10 08:08:57;;;;;;;52.23;29.87;;;4.10;99.90;;;;;;5074068;28;20468;-56
2023/02/10 08:11:24;;;;;;;43.83;28.20;;;4.10;99.90;;;;;;5074199;28;20449;-56
2023/02/10 08:13:52;;;;;;;61.67;30.23;;;4.10;99.90;;;;;;5068078;28;20464;-56
2023/02/10 08:16:19;;;;;;;54.90;32.00;;;4.20;99.90;;;;;;5055186;28;20453;-57
2023/02/10 08:18:46;;;;;;;58.73;29.17;;;4.20;99.90;;;;;;5054027;28;20971;-57
2023/02/10 08:21:12;;;;;;;52.67;29.90;;;4.30;99.90;;;;;;5054422;28;20452;-57
2023/02/10 08:23:39;;;;;;;56.40;32.17;;;4.30;99.90;;;;;;5053777;28;20470;-57
2023/02/10 08:26:07;;;;;;;47.93;31.03;;;4.40;99.90;;;;;;5054151;28;20462;-56
2023/02/10 08:28:35;;;;;;;52.80;29.60;;;4.40;99.90;;;;;;5054202;28;20504;-57
2023/02/10 08:31:05;;;;;;;57.20;32.27;;;4.50;99.90;;;;;;5053776;28;20437;-56
2023/02/10 08:33:35;;;;;;;57.10;31.57;;;4.50;99.90;;;;;;5053481;28;20467;-56
2023/02/10 08:36:04;;;;;;;52.77;31.23;;;4.60;99.90;;;;;;5053517;28;20469;-57
2023/02/10 08:38:31;;;;;;;53.97;33.00;;;4.60;99.90;;;;;;5053228;28;20426;-57
2023/02/10 08:40:58;;;;;;;50.47;28.63;;;4.70;99.90;;;;;;5053529;28;20449;-56
2023/02/10 08:43:25;;;;;;;61.23;31.57;;;4.80;99.90;;;;;;5052970;28;20470;-56
2023/02/10 08:45:55;;;;;;;48.37;30.50;;;4.80;99.90;;;;;;5052830;28;20515;-56
2023/02/10 08:48:23;;;;;;;49.80;30.33;;;4.90;99.90;;;;;;5052857;28;20465;-57
2023/02/10 08:50:50;;;;;;;51.40;28.93;;;5.00;99.90;;;;;;5052978;28;20448;-57
2023/02/10 08:53:17;;;;;;;48.73;28.70;;;5.20;99.90;;;;;;5052755;28;20972;-57
2023/02/10 08:55:44;;;;;;;54.30;28.70;;;5.30;99.90;;;;;;5052884;28;20469;-56
2023/02/10 08:58:10;;;;;;;52.47;30.80;;;5.50;99.90;;;;;;5052986;28;20441;-57
2023/02/10 09:00:38;;;;;;;55.00;30.00;;;5.60;99.90;;;;;;5053033;28;20445;-57
2023/02/10 09:03:04;;;;;;;47.33;29.90;;;5.70;99.90;;;;;;5052860;28;20488;-57
2023/02/10 09:05:36;;;;;;;50.43;28.50;;;5.90;99.90;;;;;;5052560;28;20977;-58
2023/02/10 09:08:03;;;;;;;47.47;29.30;;;6.00;99.80;;;;;;5052972;28;20438;-57
2023/02/10 09:10:30;;;;;;;43.60;29.27;;;6.10;99.40;;;;;;5052827;28;20872;-56
2023/02/10 09:12:57;;;;;;;52.60;28.27;;;6.20;99.20;;;;;;5052831;28;20484;-57
2023/02/10 09:15:23;;;;;;;45.23;28.37;;;6.20;99.10;;;;;;5053303;28;20468;-57
2023/02/10 09:17:50;;;;;;;49.70;27.37;;;6.20;99.00;;;;;;5056777;28;20441;-56
2023/02/10 09:20:17;;;;;;;49.20;29.73;;;6.20;99.00;;;;;;5056185;28;20426;-57
2023/02/10 09:22:47;;;;;;;50.60;28.97;;;6.30;99.00;;;;;;5056378;28;20496;-58
2023/02/10 09:25:14;;;;;;;51.93;29.90;;;6.40;98.60;;;;;;5056420;28;20515;-58
2023/02/10 09:27:41;;;;;;;42.73;26.80;;;6.40;98.10;;;;;;5056427;28;20448;-57
2023/02/10 09:30:08;;;;;;;46.03;29.60;;;6.40;98.00;;;;;;5056347;28;20437;-57
2023/02/10 09:32:35;;;;;;;55.27;31.73;;;6.40;97.90;;;;;;5056017;28;20430;-57
2023/02/10 09:35:02;;;;;;;51.83;31.23;;;6.30;98.20;;;;;;5055808;28;20989;-56
2023/02/10 09:37:28;;;;;;;51.13;31.00;;;6.30;98.70;;;;;;5056344;28;20430;-57
2023/02/10 09:39:56;;;;;;;50.40;29.60;;;6.30;98.80;;;;;;5056281;28;20437;-56
2023/02/10 09:42:30;;;;;;;54.50;31.43;;;6.30;99.10;;;;;;5056383;28;20453;-57
2023/02/10 09:45:04;;;;;;;56.13;33.07;;;6.50;99.50;;;;;;5056169;28;20472;-57
2023/02/10 09:47:41;;;;;;;53.97;30.60;;;6.60;99.60;;;;;;5055962;28;20468;-56
2023/02/10 09:50:29;;;;;;;55.23;31.03;;;6.60;99.40;;;;;;5055804;28;20441;-57
2023/02/10 09:53:06;;;;;;;58.73;33.07;;;6.60;99.60;;;;;;5055966;28;20438;-57
2023/02/10 09:55:37;;;;;;;51.43;31.07;;;6.70;99.40;;;;;;5059308;28;20540;-57
2023/02/10 09:58:20;;;;;;;62.43;33.70;;;6.70;99.30;;;;;;5063516;28;20449;-55
2023/02/10 10:00:50;;;;;;;59.47;33.90;;;6.70;99.10;;;;;;5060426;28;20449;-56
2023/02/10 10:03:19;;;;;;;52.77;31.37;;;6.50;99.10;;;;;;5055911;28;20493;-56
2023/02/10 10:05:56;;;;;;;59.37;32.47;;;6.50;99.70;;;;;;5055995;28;20470;-56
2023/02/10 10:08:27;;;;;;;61.87;33.27;;;6.40;99.70;;;;;;5055707;28;20490;-57
2023/02/10 10:11:01;;;;;;;55.67;33.20;;;6.50;99.90;;;;;;5055494;28;20440;-56
2023/02/10 10:13:30;;;;;;;57.60;32.90;;;6.60;99.90;;;;;;5055614;28;20460;-56
2023/02/10 10:16:17;;;;;;;58.43;33.03;;;6.70;99.90;;;;;;5055228;28;20465;-56
2023/02/10 10:18:55;;;;;;;60.27;32.83;;;6.80;99.70;;;;;;5055487;28;20449;-56
2023/02/10 10:21:29;;;;;;;62.13;33.83;;;6.90;99.80;;;;;;5055460;28;20473;-56
2023/02/10 10:24:11;;;;;;;58.60;33.67;;;7.00;99.50;;;;;;5055262;28;20473;-56
2023/02/10 10:26:57;;;;;;;61.37;35.83;;;7.10;99.20;;;;;;5055204;28;20449;-56
2023/02/10 10:29:32;;;;;;;52.50;33.07;;;7.20;98.80;;;;;;5055117;28;20422;-56
2023/02/10 10:32:11;;;;;;;57.87;34.63;;;7.30;99.40;;;;;;5054833;28;20902;-57
2023/02/10 10:34:41;;;;;;;61.57;36.20;;;7.40;98.60;;;;;;5054811;28;21012;-57
2023/02/10 10:37:15;;;;;;;54.47;34.90;;;7.50;98.10;;;;;;5055145;28;20868;-57
2023/02/10 10:39:44;;;;;;;59.20;37.10;;;7.60;97.80;;;;;;5054727;28;20954;-56
2023/02/10 10:42:20;;;;;;;63.67;35.90;;;7.60;97.20;;;;;;5054670;28;20921;-56
2023/02/10 10:44:48;;;;;;;58.97;36.00;;;7.70;97.50;;;;;;5054822;28;20489;-57
2023/02/10 10:47:21;;;;;;;59.43;35.47;;;7.90;97.50;;;;;;5054813;28;20461;-56
2023/02/10 10:49:48;;;;;;;54.77;34.40;;;8.00;97.00;;;;;;5054632;28;20472;-57
2023/02/10 10:52:27;;;;;;;51.80;34.07;;;8.10;96.80;;;;;;5055035;28;20450;-57
2023/02/10 10:54:54;;;;;;;52.77;34.00;;;8.30;96.20;;;;;;5055152;28;20509;-57
2023/02/10 10:57:23;;;;;;;55.47;35.07;;;8.60;95.70;;;;;;5054895;28;20797;-57
2023/02/10 10:59:55;;;;;;;56.50;33.70;;;8.90;94.80;;;;;;5054721;28;20458;-57
2023/02/10 11:02:23;;;;;;;50.80;33.23;;;9.20;94.00;;;;;;5054682;28;20457;-57
2023/02/10 11:05:01;;;;;;;50.13;33.50;;;9.40;93.30;;;;;;5054626;28;20516;-57
2023/02/10 11:07:31;;;;;;;54.83;34.73;;;9.50;92.80;;;;;;5054625;28;20433;-57
2023/02/10 11:09:59;;;;;;;53.70;35.07;;;9.60;92.60;;;;;;5054550;28;20429;-57
2023/02/10 11:12:33;;;;;;;47.37;33.00;;;9.60;91.60;;;;;;5054493;28;20505;-58
2023/02/10 11:15:01;;;;;;;54.27;34.70;;;9.70;91.60;;;;;;5054078;28;20484;-57
2023/02/10 11:17:35;;;;;;;53.70;34.80;;;9.70;91.50;;;;;;5054645;28;20468;-57
2023/02/10 11:20:05;;;;;;;50.77;32.83;;;9.80;91.20;;;;;;5054466;28;20448;-57
2023/02/10 11:22:32;;;;;;;50.87;33.20;;;9.90;91.00;;;;;;5054356;28;20434;-57
2023/02/10 11:25:01;;;;;;;51.23;35.53;;;10.00;90.00;;;;;;5054051;28;20493;-58
2023/02/10 11:27:29;;;;;;;48.80;33.10;;;10.10;89.20;;;;;;5054025;28;20906;-56
2023/02/10 11:30:01;;;;;;;47.57;33.13;;;10.30;88.60;;;;;;5054215;28;20451;-57
2023/02/10 11:32:32;;;;;;;47.13;30.00;;;10.60;88.00;;;;;;5053958;28;20426;-57
2023/02/10 11:35:02;;;;;;;42.00;30.93;;;10.90;84.60;;;;;;5053957;28;20465;-57
2023/02/10 11:37:30;;;;;;;50.70;31.30;;;11.10;82.20;;;;;;5054163;28;20444;-57
2023/02/10 11:40:00;;;;;;;40.43;28.73;;;11.20;80.20;;;;;;5052759;28;20910;-57
2023/02/10 11:42:32;;;;;;;43.47;28.47;;;11.20;79.70;;;;;;5053915;28;20430;-57
2023/02/10 11:45:01;;;;;;;43.67;30.37;;;11.40;79.80;;;;;;5053698;28;20492;-57
2023/02/10 11:47:30;;;;;;;46.60;30.43;;;11.70;78.00;;;;;;5053577;28;20461;-57
2023/02/10 11:49:57;;;;;;;42.83;31.13;;;12.00;76.40;;;;;;5053838;28;20449;-57
2023/02/10 11:52:27;;;;;;;49.13;31.53;;;12.40;75.90;;;;;;5053438;28;20445;-57
2023/02/10 11:54:54;;;;;;;40.43;27.83;;;12.80;73.70;;;;;;5053862;28;20514;-57
2023/02/10 12:00:29;;;;;;;42.50;30.30;;;13.50;68.80;;;;;;5053477;28;20552;-57
2023/02/10 12:03:30;;;;;;;43.00;29.50;;;13.70;66.80;;;;;;5053612;28;20442;-56
2023/02/10 12:06:05;;;;;;;45.63;29.20;;;13.50;67.10;;;;;;5053558;28;20561;-57
2023/02/10 12:08:40;;;;;;;49.23;31.30;;;13.70;66.50;;;;;;5053446;28;20444;-57
2023/02/10 12:11:13;;;;;;;42.07;30.73;;;13.90;65.50;;;;;;5053233;28;20902;-57
2023/02/10 12:13:53;;;;;;;44.47;30.77;;;14.20;63.50;;;;;;5053368;28;20422;-58
2023/02/10 12:16:27;;;;;;;41.87;29.70;;;14.50;61.00;;;;;;5053655;28;20429;-57
2023/02/10 12:18:59;;;;;;;39.23;28.57;;;14.60;59.50;;;;;;5053143;28;20835;-57
2023/02/10 12:21:43;;;;;;;41.73;28.80;;;14.70;58.20;;;;;;5053424;28;20532;-57
2023/02/10 12:24:21;;;;;;;38.60;29.70;;;14.70;58.10;;;;;;5066590;28;20487;-58
2023/02/10 12:26:55;;;;;;;36.80;28.87;;;14.70;57.50;;;;;;5072753;28;20452;-58
2023/02/10 12:29:38;;;;;;;40.80;29.30;;;15.00;57.80;;;;;;5072877;28;20476;-57
2023/02/10 12:32:18;;;;;;;41.60;29.10;;;15.30;56.30;;;;;;5072773;28;20452;-58
2023/02/10 12:35:10;;;;;;;40.80;28.30;;;15.30;55.40;;;;;;5057361;28;20480;-58
2023/02/10 12:37:47;;;;;;;36.90;28.70;;;15.40;55.10;;;;;;5053862;28;20430;-57
2023/02/10 12:40:31;;;;;;;36.40;28.50;;;15.20;54.80;;;;;;5053274;28;20434;-57
2023/02/10 12:43:06;;;;;;;38.53;27.90;;;14.90;54.60;;;;;;5053243;28;20529;-57
2023/02/10 12:45:42;;;;;;;42.17;29.77;;;14.10;56.20;;;;;;5053087;28;20480;-57
2023/02/10 12:48:19;;;;;;;38.57;28.20;;;13.70;57.80;;;;;;5052907;28;20460;-57
2023/02/10 12:51:11;;;;;;;39.03;28.17;;;13.30;58.60;;;;;;5054999;28;20432;-58
2023/02/10 12:53:41;;;;;;;37.20;25.40;;;13.40;58.80;;;;;;5057114;28;20441;-58